createdAt,value
2022-12-29T00:07:10.409Z,5.73
2022-12-29T00:22:32.591Z,5.72
2022-12-29T00:37:53.368Z,5.72
2022-12-29T00:52:55.194Z,5.74
2022-12-29T01:07:57.144Z,5.72
2022-12-29T01:22:59.081Z,5.56
2022-12-29T01:38:01.268Z,5.55
2022-12-29T01:53:15.493Z,5.49
2022-12-29T02:08:18.392Z,5.28
2022-12-29T02:23:50.510Z,5.09
2022-12-29T02:39:18.046Z,4.97
2022-12-29T02:54:39.689Z,4.91
2022-12-29T03:10:17.250Z,4.81
2022-12-29T03:25:32.825Z,4.77
2022-12-29T03:40:36.105Z,4.67
2022-12-29T03:55:38.086Z,4.60
2022-12-29T04:10:40.282Z,4.48
2022-12-29T04:25:42.366Z,4.39
2022-12-29T04:40:44.629Z,4.36
2022-12-29T04:55:50.412Z,4.42
2022-12-29T05:10:53.206Z,4.50
2022-12-29T05:25:55.169Z,4.59
2022-12-29T05:40:57.126Z,4.66
2022-12-29T05:55:59.087Z,4.57
2022-12-29T06:11:01.345Z,4.56
2022-12-29T06:26:03.386Z,4.55
2022-12-29T06:41:05.609Z,4.67
2022-12-29T06:56:07.927Z,4.74
2022-12-29T07:11:09.987Z,4.87
2022-12-29T07:26:14.710Z,5.00
2022-12-29T07:41:16.645Z,5.09
2022-12-29T07:56:19.187Z,5.29
2022-12-29T08:11:21.426Z,5.45
2022-12-29T08:26:23.420Z,5.65
2022-12-29T08:41:26.148Z,5.79
2022-12-29T08:56:28.346Z,5.97
2022-12-29T09:11:30.387Z,6.18
2022-12-29T09:26:32.407Z,6.35
2022-12-29T09:41:43.507Z,6.52
2022-12-29T09:56:46.465Z,6.68
2022-12-29T10:11:58.825Z,6.97
2022-12-29T10:27:01.240Z,6.99
2022-12-29T10:42:03.131Z,6.94
2022-12-29T10:57:12.249Z,7.30
2022-12-29T11:12:26.207Z,7.63
2022-12-29T11:27:28.299Z,7.66
2022-12-29T11:42:43.540Z,7.85
2022-12-29T11:57:46.453Z,7.90
2022-12-29T12:13:02.507Z,7.90
2022-12-29T12:28:25.412Z,7.91
2022-12-29T12:43:52.830Z,7.80
2022-12-29T12:59:13.253Z,7.79
2022-12-29T13:14:35.541Z,7.78
2022-12-29T13:29:41.928Z,7.80
2022-12-29T13:44:55.607Z,7.85
2022-12-29T14:00:13.532Z,7.59
2022-12-29T14:15:25.526Z,7.38
2022-12-29T14:30:49.409Z,6.96
2022-12-29T14:45:58.725Z,6.56
2022-12-29T15:01:01.780Z,6.20
2022-12-29T15:16:05.495Z,6.10
2022-12-29T15:31:18.100Z,5.95
2022-12-29T15:46:20.805Z,5.86
2022-12-29T16:01:32.999Z,5.87
2022-12-29T16:16:41.123Z,6.35
2022-12-29T16:32:06.566Z,6.72
2022-12-29T16:47:11.580Z,6.90
2022-12-29T17:02:20.695Z,7.01
2022-12-29T17:17:48.791Z,7.27
2022-12-29T17:33:10.607Z,7.42
2022-12-29T17:48:17.868Z,7.51
2022-12-29T18:03:30.706Z,7.55
2022-12-29T18:18:32.810Z,7.71
2022-12-29T18:33:34.857Z,7.90
2022-12-29T18:48:36.870Z,8.00
2022-12-29T19:03:38.861Z,8.03
2022-12-29T19:18:44.166Z,8.14
2022-12-29T19:33:47.587Z,8.28
2022-12-29T19:48:49.547Z,8.24
2022-12-29T20:03:52.769Z,7.73
2022-12-29T20:18:54.926Z,7.39
2022-12-29T20:33:57.072Z,7.04
2022-12-29T20:48:59.433Z,6.89
2022-12-29T21:04:01.571Z,7.18
2022-12-29T21:19:03.615Z,7.43
2022-12-29T21:34:06.809Z,7.65
2022-12-29T21:49:09.020Z,7.69
2022-12-29T22:04:37.731Z,7.76
2022-12-29T22:19:39.685Z,7.82
2022-12-29T22:34:41.606Z,7.82
2022-12-29T22:49:43.544Z,7.87
2022-12-29T23:20:08.630Z,7.82
2022-12-29T23:35:10.625Z,7.32
2022-12-29T23:50:12.565Z,6.76
